createdAt,value
2018-11-20T03:38:11.016Z,23.90
2018-11-20T03:39:10.972Z,26.10
2018-11-20T03:40:10.975Z,29.90
2018-11-20T03:41:10.981Z,27.90
2018-11-20T03:42:10.990Z,29.50
2018-11-20T03:43:10.994Z,29.00
2018-11-20T03:44:11.001Z,27.30
2018-11-20T03:45:11.007Z,28.10
2018-11-20T03:46:11.019Z,28.40
2018-11-20T03:47:11.022Z,26.90
2018-11-20T03:48:11.037Z,27.60
2018-11-20T03:49:11.041Z,27.60
2018-11-20T03:50:11.048Z,26.80
2018-11-20T03:51:11.059Z,28.10
2018-11-20T03:52:11.063Z,26.30
2018-11-20T03:53:11.072Z,27.70
2018-11-20T03:54:11.081Z,28.40
2018-11-20T03:55:11.092Z,27.20
2018-11-20T03:56:11.100Z,27.10
2018-11-20T03:57:11.111Z,29.00
2018-11-20T03:58:11.120Z,24.60
2018-11-20T03:59:11.137Z,26.20
2018-11-20T04:00:11.145Z,27.20
2018-11-20T04:01:11.152Z,26.90
2018-11-20T04:02:11.160Z,26.60
2018-11-20T04:03:11.188Z,26.50
2018-11-20T04:04:11.178Z,28.30
2018-11-20T04:05:11.195Z,26.10
2018-11-20T04:06:11.213Z,27.40
2018-11-20T04:07:11.210Z,27.50
2018-11-20T04:08:11.219Z,27.60
2018-11-20T04:09:11.239Z,27.30
2018-11-20T04:10:11.242Z,25.50
2018-11-20T04:11:11.249Z,26.20
2018-11-20T04:12:11.264Z,26.00
2018-11-20T04:13:11.278Z,26.50
2018-11-20T04:14:11.282Z,26.80
2018-11-20T04:15:11.293Z,25.10
2018-11-20T04:16:11.301Z,26.10
2018-11-20T04:17:11.311Z,26.80
2018-11-20T04:18:11.326Z,27.80
2018-11-20T04:19:11.332Z,27.40
2018-11-20T04:20:11.344Z,25.10
2018-11-20T04:21:11.353Z,26.10
2018-11-20T04:22:11.362Z,25.60
2018-11-20T04:23:11.379Z,24.90
2018-11-20T04:24:11.384Z,25.30
2018-11-20T04:25:11.397Z,26.50
2018-11-20T04:26:11.407Z,25.90
2018-11-20T04:27:11.417Z,25.20
2018-11-20T04:28:11.432Z,24.30
2018-11-20T04:29:11.441Z,23.60
2018-11-20T04:30:11.450Z,27.30
2018-11-20T04:31:11.463Z,26.00
2018-11-20T04:32:11.468Z,25.00
2018-11-20T04:33:11.481Z,25.50
2018-11-20T04:34:11.496Z,24.00
2018-11-20T04:35:11.505Z,26.10
2018-11-20T04:36:11.524Z,25.90
2018-11-20T04:37:11.527Z,25.90
2018-11-20T04:38:11.539Z,24.40
2018-11-20T04:39:11.555Z,24.40
2018-11-20T04:40:11.561Z,24.70
2018-11-20T04:41:11.585Z,24.80
2018-11-20T04:42:11.578Z,24.90
2018-11-20T04:43:11.587Z,24.50
2018-11-20T04:44:11.601Z,25.10
2018-11-20T04:45:11.613Z,22.90
2018-11-20T04:46:11.622Z,26.40
2018-11-20T04:47:11.637Z,24.90
2018-11-20T04:48:11.647Z,27.30
2018-11-20T04:49:11.661Z,26.60
2018-11-20T04:50:11.665Z,25.30
2018-11-20T04:51:11.676Z,24.70
2018-11-20T04:52:11.687Z,25.20
2018-11-20T04:53:11.697Z,25.80
2018-11-20T04:54:11.727Z,24.60
2018-11-20T04:55:11.723Z,25.30
2018-11-20T04:56:11.733Z,23.70
2018-11-20T04:57:11.741Z,24.20
2018-11-20T04:58:11.754Z,23.20
2018-11-20T04:59:11.764Z,25.20
2018-11-20T05:00:11.782Z,23.90
2018-11-20T05:01:11.789Z,24.30
2018-11-20T05:02:11.797Z,24.60
2018-11-20T05:03:11.806Z,23.90
2018-11-20T05:04:11.828Z,24.40
2018-11-20T05:05:11.830Z,23.00
2018-11-20T05:06:11.839Z,24.10
2018-11-20T05:07:11.848Z,25.40
2018-11-20T05:08:11.865Z,24.90
2018-11-20T05:09:11.871Z,24.10
2018-11-20T05:10:11.884Z,24.70
2018-11-20T05:11:11.893Z,25.50
2018-11-20T05:12:11.923Z,23.30
2018-11-20T05:13:11.929Z,24.60
2018-11-20T05:14:11.923Z,22.60
2018-11-20T05:15:11.957Z,23.80
2018-11-20T05:16:11.948Z,24.60
2018-11-20T05:17:11.964Z,23.20
2018-11-20T05:18:11.970Z,23.60
2018-11-20T05:19:11.982Z,23.90
2018-11-20T05:20:11.995Z,23.90
2018-11-20T05:21:12.001Z,24.30
2018-11-20T05:22:12.009Z,23.50
2018-11-20T05:23:12.024Z,24.70
2018-11-20T05:24:12.033Z,24.20
2018-11-20T05:25:12.046Z,25.30
2018-11-20T05:26:12.057Z,22.70
2018-11-20T05:27:12.069Z,24.70
2018-11-20T05:28:12.092Z,25.20
2018-11-20T05:29:12.093Z,22.90
2018-11-20T05:30:12.101Z,23.20
2018-11-20T05:31:12.213Z,23.30
2018-11-20T05:32:12.127Z,24.40
2018-11-20T05:33:12.131Z,23.90
2018-11-20T05:34:12.140Z,23.50
2018-11-20T05:35:12.158Z,24.10
2018-11-20T05:36:12.168Z,23.30
2018-11-20T05:37:12.177Z,23.40
2018-11-20T05:38:12.188Z,22.60
2018-11-20T05:39:12.197Z,23.60
2018-11-20T05:40:12.216Z,22.10
2018-11-20T05:41:12.234Z,23.30
2018-11-20T05:42:12.232Z,23.10
2018-11-20T05:43:12.248Z,23.10
2018-11-20T05:44:12.255Z,23.00
2018-11-20T05:45:12.270Z,22.60
2018-11-20T05:46:12.276Z,25.70
2018-11-20T05:47:12.286Z,23.80
2018-11-20T05:48:12.297Z,24.40
2018-11-20T05:49:12.307Z,23.60
2018-11-20T05:50:12.318Z,24.20
2018-11-20T05:51:12.325Z,23.40
2018-11-20T05:52:12.355Z,24.40
2018-11-20T05:53:12.351Z,24.90
2018-11-20T05:54:12.368Z,23.00
2018-11-20T05:55:12.371Z,23.10
2018-11-20T05:56:12.383Z,23.60
2018-11-20T05:57:12.396Z,24.30
2018-11-20T05:58:12.490Z,23.00
2018-11-20T05:59:12.417Z,24.50
2018-11-20T06:00:12.432Z,24.50
2018-11-20T06:01:12.444Z,23.60
2018-11-20T06:02:12.452Z,24.70
2018-11-20T06:03:12.461Z,24.50
2018-11-20T06:04:12.471Z,24.20
2018-11-20T06:05:12.483Z,25.20
2018-11-20T06:06:12.545Z,23.70
2018-11-20T06:07:12.513Z,24.80
2018-11-20T06:08:12.518Z,22.50
2018-11-20T06:09:12.523Z,24.40
2018-11-20T06:10:12.541Z,24.50
2018-11-20T06:11:12.550Z,22.70
2018-11-20T06:12:12.562Z,24.40
2018-11-20T06:13:12.575Z,25.70
2018-11-20T06:14:12.591Z,25.80
2018-11-20T06:15:12.591Z,25.30
2018-11-20T06:16:12.602Z,24.00
2018-11-20T06:17:12.612Z,24.70
2018-11-20T06:18:12.627Z,24.00
2018-11-20T06:19:12.637Z,24.00
2018-11-20T06:20:12.645Z,23.50
2018-11-20T06:21:12.662Z,23.80
2018-11-20T06:22:12.669Z,25.10
2018-11-20T06:23:12.679Z,23.90
2018-11-20T06:24:12.720Z,25.20
2018-11-20T06:25:12.722Z,23.90
2018-11-20T06:26:12.715Z,24.10
2018-11-20T06:27:12.750Z,22.90
2018-11-20T06:28:12.764Z,24.30
2018-11-20T06:29:12.785Z,23.10
2018-11-20T06:30:12.757Z,22.60
2018-11-20T06:31:12.767Z,25.50
2018-11-20T06:32:12.781Z,24.10
2018-11-20T06:33:12.790Z,24.90
2018-11-20T06:34:12.817Z,23.90
2018-11-20T06:35:12.812Z,22.70
2018-11-20T06:36:12.820Z,24.10
2018-11-20T06:37:12.839Z,24.90
2018-11-20T06:38:12.847Z,22.40
2018-11-20T06:39:12.855Z,27.40
2018-11-20T06:40:12.868Z,24.30
2018-11-20T06:41:12.924Z,23.70
2018-11-20T06:42:12.916Z,26.20
2018-11-20T06:43:12.897Z,24.80
2018-11-20T06:44:12.915Z,27.10
2018-11-20T06:45:12.927Z,23.80
2018-11-20T06:46:12.942Z,25.30
2018-11-20T06:47:13.007Z,26.40
2018-11-20T06:48:12.973Z,24.10
2018-11-20T06:49:12.972Z,24.80
2018-11-20T06:50:12.987Z,25.10
2018-11-20T06:51:12.996Z,24.90
2018-11-20T06:52:13.006Z,26.10
2018-11-20T06:53:13.189Z,25.10
2018-11-20T06:54:13.028Z,25.00
2018-11-20T06:55:13.036Z,25.30
2018-11-20T06:56:13.044Z,24.40
2018-11-20T06:57:13.060Z,24.20
2018-11-20T06:58:13.077Z,25.30
2018-11-20T06:59:13.076Z,25.80
2018-11-20T07:00:13.090Z,23.80
2018-11-20T07:01:13.106Z,23.50
2018-11-20T07:02:13.114Z,24.60
2018-11-20T07:03:13.129Z,25.40
2018-11-20T07:04:13.140Z,25.60
2018-11-20T07:05:13.147Z,27.30
2018-11-20T07:06:13.158Z,24.40
2018-11-20T07:07:13.295Z,27.50
2018-11-20T07:08:13.324Z,28.30
2018-11-20T07:09:13.189Z,25.70
2018-11-20T07:10:13.204Z,26.30
2018-11-20T07:11:13.212Z,27.70
2018-11-20T07:12:13.218Z,24.00
2018-11-20T07:13:13.236Z,24.50
2018-11-20T07:14:13.241Z,25.80
2018-11-20T07:15:13.337Z,26.20
2018-11-20T07:16:13.446Z,26.00
2018-11-20T07:17:13.276Z,24.60
2018-11-20T07:18:13.289Z,26.90
2018-11-20T07:19:13.312Z,26.30
2018-11-20T07:20:13.316Z,25.30
2018-11-20T07:21:13.347Z,26.20
2018-11-20T07:22:13.335Z,24.60
2018-11-20T07:23:13.351Z,26.10
2018-11-20T07:24:13.369Z,27.70
2018-11-20T07:25:13.364Z,28.10
2018-11-20T07:26:13.385Z,25.70
2018-11-20T07:27:13.411Z,25.70
2018-11-20T07:28:13.407Z,28.10
2018-11-20T07:29:13.407Z,25.40
2018-11-20T07:30:13.552Z,26.30
2018-11-20T07:31:13.474Z,25.70
2018-11-20T07:32:13.438Z,25.60
2018-11-20T07:33:13.449Z,25.70
2018-11-20T07:34:13.481Z,25.30
2018-11-20T07:35:13.482Z,25.30
2018-11-20T07:36:13.538Z,24.60
2018-11-20T07:37:13.692Z,25.10
2018-11-20T07:38:13.505Z,26.70
2018-11-20T07:39:13.520Z,23.90
2018-11-20T07:40:13.531Z,26.80
2018-11-20T07:41:13.551Z,28.40
2018-11-20T07:42:13.561Z,28.10
2018-11-20T07:43:13.582Z,25.50
2018-11-20T07:44:13.586Z,23.80
2018-11-20T07:45:13.589Z,25.40
2018-11-20T07:46:13.602Z,26.40
2018-11-20T07:47:13.601Z,27.40
2018-11-20T07:48:13.624Z,26.20
2018-11-20T07:49:13.621Z,27.30
2018-11-20T07:50:13.640Z,27.00
2018-11-20T07:51:13.666Z,25.70
2018-11-20T07:52:13.664Z,26.20
2018-11-20T07:53:13.691Z,27.10
2018-11-20T07:54:13.684Z,26.40
2018-11-20T07:55:13.730Z,27.10
2018-11-20T07:56:13.811Z,24.30
2018-11-20T07:57:13.711Z,26.50
2018-11-20T07:58:13.724Z,25.00
2018-11-20T07:59:13.742Z,25.70
2018-11-20T08:00:13.750Z,27.40
2018-11-20T08:01:13.778Z,27.50
2018-11-20T08:02:13.796Z,26.20
2018-11-20T08:03:13.782Z,44.50
2018-11-20T08:04:13.792Z,28.60
2018-11-20T08:05:13.802Z,26.80
2018-11-20T08:06:13.813Z,25.50
2018-11-20T08:07:13.829Z,25.90
2018-11-20T08:08:13.851Z,24.90
2018-11-20T08:09:13.843Z,27.20
2018-11-20T08:10:13.890Z,25.00
2018-11-20T08:11:13.877Z,25.30
2018-11-20T08:12:13.883Z,25.20
2018-11-20T08:13:13.893Z,26.70
2018-11-20T08:14:13.902Z,27.00
2018-11-20T08:15:13.938Z,28.90
2018-11-20T08:16:13.928Z,25.80
2018-11-20T08:17:13.939Z,26.90
2018-11-20T08:18:13.953Z,26.20
2018-11-20T08:19:13.962Z,26.50
2018-11-20T08:20:13.973Z,27.40
2018-11-20T08:21:13.978Z,27.20
2018-11-20T08:22:14.001Z,28.30
2018-11-20T08:23:13.999Z,26.40
2018-11-20T08:24:14.015Z,26.20
2018-11-20T08:25:14.042Z,26.80
2018-11-20T08:26:14.187Z,28.40
2018-11-20T08:27:14.044Z,27.80
2018-11-20T08:28:14.057Z,26.70
2018-11-20T08:29:14.071Z,29.10
2018-11-20T08:30:14.086Z,26.50
2018-11-20T08:31:14.096Z,28.30
2018-11-20T08:32:14.108Z,28.30
2018-11-20T08:33:14.125Z,27.80
2018-11-20T08:34:14.176Z,25.30
2018-11-20T08:35:14.192Z,25.90
2018-11-20T08:36:14.145Z,27.80
2018-11-20T08:37:14.204Z,26.90
2018-11-20T08:38:14.171Z,26.30
2018-11-20T08:39:14.183Z,27.20
2018-11-20T08:40:14.194Z,26.70
2018-11-20T08:41:14.205Z,25.50
2018-11-20T08:42:14.285Z,27.70
2018-11-20T08:43:14.225Z,26.90
2018-11-20T08:44:14.252Z,26.20
2018-11-20T08:45:14.258Z,26.90
2018-11-20T08:46:14.259Z,27.00
2018-11-20T08:47:14.264Z,28.10
2018-11-20T08:48:14.345Z,27.30
2018-11-20T08:49:14.289Z,27.80
2018-11-20T08:50:14.315Z,28.60
2018-11-20T08:51:14.313Z,27.20
2018-11-20T08:52:14.326Z,27.90
2018-11-20T08:53:14.339Z,28.10
2018-11-20T08:54:14.348Z,25.30
2018-11-20T08:55:14.358Z,27.40
2018-11-20T08:56:14.380Z,25.50
2018-11-20T08:57:14.381Z,28.40
2018-11-20T08:58:14.393Z,27.50
2018-11-20T08:59:14.400Z,28.30
2018-11-20T09:00:14.419Z,27.20
2018-11-20T09:01:14.429Z,27.30
2018-11-20T09:02:14.545Z,27.50
2018-11-20T09:03:14.583Z,26.40
2018-11-20T09:04:14.471Z,26.60
2018-11-20T09:05:14.474Z,27.80
2018-11-20T09:06:14.480Z,28.20
2018-11-20T09:07:14.500Z,27.60
2018-11-20T09:08:14.506Z,28.20
2018-11-20T09:09:14.520Z,27.50
2018-11-20T09:10:14.545Z,31.60
2018-11-20T09:11:14.548Z,30.80
2018-11-20T09:12:14.553Z,27.20
2018-11-20T09:13:14.560Z,30.10
2018-11-20T09:14:14.571Z,28.90
2018-11-20T09:15:14.583Z,30.50
2018-11-20T09:16:14.594Z,27.20
2018-11-20T09:17:14.602Z,29.00
2018-11-20T09:18:14.625Z,29.10
2018-11-20T09:19:14.626Z,31.10
2018-11-20T09:20:14.691Z,27.30
2018-11-20T09:21:14.738Z,28.50
2018-11-20T09:22:14.661Z,28.00
2018-11-20T09:23:14.677Z,30.00
2018-11-20T09:24:14.702Z,28.50
2018-11-20T09:25:14.692Z,31.40
2018-11-20T09:26:14.710Z,28.60
2018-11-20T09:27:14.721Z,28.90
2018-11-20T09:28:14.731Z,29.20
2018-11-20T09:29:14.744Z,27.70
2018-11-20T09:30:14.755Z,29.30
2018-11-20T09:31:14.757Z,28.00
2018-11-20T09:32:14.776Z,31.30
2018-11-20T09:33:14.795Z,31.00
2018-11-20T09:34:14.843Z,39.90
2018-11-20T09:35:15.055Z,31.20
2018-11-20T09:36:14.826Z,32.70
2018-11-20T09:37:14.839Z,29.70
2018-11-20T09:38:14.849Z,30.40
2018-11-20T09:39:14.850Z,30.60
2018-11-20T09:40:14.865Z,29.50
2018-11-20T09:41:14.882Z,28.90
2018-11-20T09:42:14.888Z,28.50
2018-11-20T09:43:14.898Z,33.40
2018-11-20T09:44:14.908Z,29.50
2018-11-20T09:45:14.932Z,27.10
2018-11-20T09:46:14.948Z,33.20
2018-11-20T09:47:14.946Z,30.60
2018-11-20T09:48:14.960Z,29.60
2018-11-20T09:49:14.962Z,33.70
2018-11-20T09:50:14.976Z,29.50
2018-11-20T09:51:14.990Z,29.10
2018-11-20T09:52:15.046Z,30.50
2018-11-20T09:53:15.009Z,32.10
2018-11-20T09:54:15.084Z,30.40
2018-11-20T09:55:15.033Z,32.40
2018-11-20T09:56:15.046Z,29.80
2018-11-20T09:57:15.059Z,30.30
2018-11-20T09:58:15.076Z,31.20
2018-11-20T09:59:15.107Z,31.30
2018-11-20T10:00:15.092Z,32.70
2018-11-20T10:01:15.101Z,31.10
2018-11-20T10:02:15.112Z,28.10
2018-11-20T10:03:15.126Z,30.40
2018-11-20T10:04:15.137Z,29.50
2018-11-20T10:05:15.145Z,28.50
2018-11-20T10:06:15.159Z,29.60
2018-11-20T10:07:15.216Z,31.00
2018-11-20T10:08:15.207Z,31.20
2018-11-20T10:09:15.200Z,31.40
2018-11-20T10:10:15.230Z,32.90
2018-11-20T10:11:15.216Z,30.20
2018-11-20T10:12:15.233Z,29.10
2018-11-20T10:13:15.242Z,29.80
2018-11-20T10:14:15.372Z,31.90
2018-11-20T10:15:15.295Z,30.60
2018-11-20T10:16:15.275Z,31.90
2018-11-20T10:17:15.285Z,30.40
2018-11-20T10:18:15.296Z,31.20
2018-11-20T10:19:15.310Z,31.10
2018-11-20T10:20:15.319Z,29.60
2018-11-20T10:21:15.344Z,29.80
2018-11-20T10:22:15.344Z,29.30
2018-11-20T10:23:15.359Z,28.40
2018-11-20T10:24:15.364Z,28.90
2018-11-20T10:25:15.391Z,31.50
2018-11-20T10:26:15.547Z,31.20
2018-11-20T10:27:15.399Z,30.70
2018-11-20T10:28:15.417Z,33.60
2018-11-20T10:29:15.427Z,31.00
2018-11-20T10:30:15.434Z,30.40
2018-11-20T10:31:15.453Z,30.20
2018-11-20T10:32:15.467Z,29.30
2018-11-20T10:33:15.471Z,30.90
2018-11-20T10:34:15.550Z,32.80
2018-11-20T10:35:15.494Z,38.80
2018-11-20T10:36:15.505Z,28.90
2018-11-20T10:37:15.523Z,29.60
2018-11-20T10:38:15.529Z,31.80
2018-11-20T10:39:15.539Z,29.60
2018-11-20T10:40:15.585Z,32.40
2018-11-20T10:41:15.562Z,30.90
2018-11-20T10:42:15.580Z,29.90
2018-11-20T10:43:15.588Z,31.30
2018-11-20T10:44:15.607Z,30.40
2018-11-20T10:45:15.643Z,30.10
2018-11-20T10:46:15.724Z,32.10
2018-11-20T10:47:15.634Z,30.50
2018-11-20T10:48:15.642Z,29.30
2018-11-20T10:49:15.664Z,29.50
2018-11-20T10:50:15.688Z,31.20
2018-11-20T10:51:15.691Z,29.20
2018-11-20T10:52:15.699Z,30.70
2018-11-20T10:53:15.713Z,30.40
2018-11-20T10:54:15.716Z,30.70
2018-11-20T10:55:15.726Z,28.30
2018-11-20T10:56:15.735Z,28.70
2018-11-20T10:57:15.758Z,29.10
2018-11-20T10:58:15.764Z,27.70
2018-11-20T10:59:15.771Z,29.80
2018-11-20T11:00:15.785Z,27.80
2018-11-20T11:01:15.798Z,32.40
2018-11-20T11:02:15.807Z,30.00
2018-11-20T11:03:15.825Z,31.30
2018-11-20T11:04:15.914Z,30.10
2018-11-20T11:05:15.848Z,28.20
2018-11-20T11:06:15.893Z,30.10
2018-11-20T11:07:15.932Z,29.10
2018-11-20T11:08:15.970Z,29.70
2018-11-20T11:09:15.896Z,28.80
2018-11-20T11:10:15.912Z,27.40
2018-11-20T11:11:15.931Z,28.30
2018-11-20T11:12:16.081Z,29.80
2018-11-20T11:13:15.947Z,30.80
2018-11-20T11:14:15.960Z,28.90
2018-11-20T11:15:15.968Z,29.10
2018-11-20T11:16:15.977Z,29.10
2018-11-20T11:17:15.988Z,29.00
2018-11-20T11:18:16.048Z,28.50
2018-11-20T11:19:16.007Z,28.00
2018-11-20T11:20:16.037Z,28.90
2018-11-20T11:21:16.045Z,31.60
2018-11-20T11:22:16.049Z,27.30
2018-11-20T11:23:16.063Z,31.10
2018-11-20T11:24:16.082Z,29.00
2018-11-20T11:25:16.084Z,30.10
2018-11-20T11:26:16.100Z,27.60
2018-11-20T11:27:16.113Z,30.00
2018-11-20T11:28:16.119Z,28.90
2018-11-20T11:29:16.138Z,28.40
2018-11-20T11:30:16.145Z,30.30
2018-11-20T11:31:16.161Z,27.80
2018-11-20T11:32:16.183Z,28.20
2018-11-20T11:33:16.186Z,30.90
2018-11-20T11:34:16.193Z,29.90
2018-11-20T11:35:16.208Z,26.50
2018-11-20T11:36:16.255Z,25.70
2018-11-20T11:37:16.233Z,27.90
2018-11-20T11:38:16.250Z,28.50
2018-11-20T11:39:16.251Z,27.90
2018-11-20T11:40:16.267Z,27.30
2018-11-20T11:41:16.322Z,26.90
2018-11-20T11:42:16.301Z,25.20
2018-11-20T11:43:16.305Z,26.00
2018-11-20T11:44:16.311Z,26.50
2018-11-20T11:45:16.327Z,28.20
2018-11-20T11:46:16.338Z,27.90
2018-11-20T11:47:16.983Z,25.50
2018-11-20T11:48:16.399Z,26.10
2018-11-20T11:49:16.376Z,25.80
2018-11-20T11:50:16.387Z,26.80
2018-11-20T11:51:16.399Z,24.60
2018-11-20T11:52:16.467Z,30.10
2018-11-20T11:53:16.422Z,24.30
2018-11-20T11:54:16.451Z,25.40
2018-11-20T11:55:16.452Z,26.10
2018-11-20T11:56:16.457Z,25.40
2018-11-20T11:57:16.503Z,26.30
2018-11-20T11:58:18.725Z,24.60
2018-11-20T11:59:16.564Z,23.20
2018-11-20T12:00:16.519Z,25.90
2018-11-20T12:01:16.565Z,25.60
2018-11-20T12:03:16.559Z,26.50
2018-11-20T12:04:16.589Z,25.00
2018-11-20T12:05:16.578Z,24.50
2018-11-20T12:06:16.638Z,23.60
2018-11-20T12:07:16.637Z,24.30
2018-11-20T12:08:16.654Z,25.00
2018-11-20T12:09:16.661Z,26.10
2018-11-20T12:10:16.677Z,24.00
2018-11-20T12:11:16.700Z,24.90
2018-11-20T12:12:16.708Z,24.30
2018-11-20T12:13:37.732Z,24.40
2018-11-20T12:14:16.723Z,23.70
2018-11-20T12:15:16.730Z,23.60
2018-11-20T12:16:16.701Z,24.90
2018-11-20T12:17:16.788Z,23.50
2018-11-20T12:18:16.902Z,24.90
2018-11-20T12:19:16.764Z,24.30
2018-11-20T12:20:16.760Z,25.50
2018-11-20T12:21:16.834Z,24.80
2018-11-20T12:22:17.646Z,27.00
2018-11-20T12:23:16.823Z,24.50
2018-11-20T12:24:16.878Z,24.70
2018-11-20T12:25:21.633Z,24.90
2018-11-20T12:26:16.887Z,27.30
2018-11-20T12:27:16.889Z,26.30
2018-11-20T12:28:16.956Z,24.80
2018-11-20T12:29:17.121Z,25.00
2018-11-20T12:30:16.935Z,26.40
2018-11-20T12:31:16.990Z,25.10
2018-11-20T12:32:16.960Z,25.50
2018-11-20T12:33:16.915Z,25.40
2018-11-20T12:34:18.945Z,26.20
2018-11-20T12:35:16.939Z,28.20
2018-11-20T12:36:16.954Z,24.90
2018-11-20T12:37:16.964Z,24.30
2018-11-20T12:38:17.233Z,26.20
2018-11-20T12:39:16.987Z,27.80
2018-11-20T12:40:17.000Z,26.90
2018-11-20T12:41:17.016Z,24.40
2018-11-20T12:42:17.026Z,24.80
2018-11-20T12:43:18.254Z,25.90
2018-11-20T12:44:18.154Z,28.80
2018-11-20T12:45:17.063Z,25.70
2018-11-20T12:46:17.073Z,26.00
2018-11-20T12:47:17.088Z,25.90
2018-11-20T12:48:17.095Z,25.40
2018-11-20T12:49:19.070Z,26.20
2018-11-20T12:50:17.132Z,23.30
2018-11-20T12:51:17.149Z,26.10
2018-11-20T12:52:17.146Z,24.30
2018-11-20T12:53:17.200Z,22.50
2018-11-20T12:54:17.170Z,25.50
2018-11-20T12:55:17.182Z,29.40
2018-11-20T12:56:17.196Z,23.50
2018-11-20T12:57:17.212Z,24.70
2018-11-20T12:58:17.239Z,23.20
2018-11-20T12:59:17.231Z,23.70
2018-11-20T13:00:17.250Z,25.20
2018-11-20T13:01:17.265Z,24.10
2018-11-20T13:02:17.286Z,25.40
2018-11-20T13:03:17.287Z,26.00
2018-11-20T13:04:17.297Z,25.20
2018-11-20T13:05:17.303Z,24.80
2018-11-20T13:06:17.311Z,25.30
2018-11-20T13:07:17.340Z,25.00
2018-11-20T13:08:17.340Z,24.90
2018-11-20T13:09:17.369Z,25.10
2018-11-20T13:10:17.370Z,24.10
2018-11-20T13:11:17.383Z,25.60
2018-11-20T13:12:17.389Z,26.20
2018-11-20T13:13:18.155Z,26.50
2018-11-20T13:14:17.412Z,29.30
2018-11-20T13:15:17.428Z,27.40
2018-11-20T13:16:17.440Z,26.00
2018-11-20T13:17:17.448Z,29.00
2018-11-20T13:18:17.465Z,26.10
2018-11-20T13:19:17.479Z,27.30
2018-11-20T13:20:17.502Z,26.60
2018-11-20T13:21:17.500Z,25.90
2018-11-20T13:22:17.510Z,26.20
2018-11-20T13:23:17.522Z,24.80
2018-11-20T13:24:17.536Z,27.40
2018-11-20T13:25:17.548Z,25.40
2018-11-20T13:26:17.557Z,25.10
2018-11-20T13:27:17.570Z,25.80
2018-11-20T13:28:17.582Z,27.30
2018-11-20T13:29:17.596Z,27.60
2018-11-20T13:30:17.609Z,25.60
2018-11-20T13:31:17.616Z,28.10
2018-11-20T13:32:17.630Z,26.30
2018-11-20T13:33:17.889Z,28.00
2018-11-20T13:34:20.959Z,25.10
2018-11-20T13:35:17.664Z,26.70
2018-11-20T13:36:17.681Z,25.20
2018-11-20T13:37:18.233Z,26.10
2018-11-20T13:38:17.708Z,25.10
2018-11-20T13:39:17.716Z,28.10
2018-11-20T13:40:17.723Z,26.80
2018-11-20T13:41:17.739Z,29.50
2018-11-20T13:42:17.760Z,25.50
2018-11-20T13:43:17.762Z,26.10
2018-11-20T13:44:17.774Z,26.90
2018-11-20T13:45:18.680Z,30.60
2018-11-20T13:46:17.797Z,27.40
2018-11-20T13:47:17.810Z,28.00
2018-11-20T13:48:17.822Z,28.20
2018-11-20T13:49:17.833Z,28.50
2018-11-20T13:50:17.844Z,28.30
2018-11-20T13:51:17.856Z,31.60
2018-11-20T13:52:17.871Z,31.00
2018-11-20T13:53:17.880Z,31.00
2018-11-20T13:54:17.892Z,32.60
2018-11-20T13:55:17.904Z,30.00
2018-11-20T13:56:17.912Z,29.10
2018-11-20T13:57:17.939Z,29.30
2018-11-20T13:58:17.946Z,30.50
2018-11-20T13:59:17.949Z,31.10
2018-11-20T14:00:17.965Z,30.60
2018-11-20T14:01:17.981Z,33.90
2018-11-20T14:02:17.985Z,32.40
2018-11-20T14:03:17.998Z,31.40
2018-11-20T14:04:18.014Z,33.80
2018-11-20T14:05:18.022Z,30.40
2018-11-20T14:06:18.040Z,30.90
2018-11-20T14:07:18.049Z,33.00
2018-11-20T14:08:18.059Z,30.40
2018-11-20T14:09:18.068Z,32.30
2018-11-20T14:10:18.081Z,32.40
2018-11-20T14:11:18.092Z,29.80
2018-11-20T14:12:18.123Z,30.90
2018-11-20T14:13:18.123Z,29.30
2018-11-20T14:14:18.139Z,29.00
2018-11-20T14:15:18.144Z,34.60
2018-11-20T14:16:18.153Z,32.00
2018-11-20T14:17:18.181Z,31.50
2018-11-20T14:18:18.172Z,29.80
2018-11-20T14:19:18.606Z,32.30
2018-11-20T14:20:18.196Z,31.70
2018-11-20T14:21:18.211Z,32.70
2018-11-20T14:22:18.220Z,32.60
2018-11-20T14:23:18.245Z,34.80
2018-11-20T14:24:18.239Z,34.90
2018-11-20T14:25:18.258Z,33.10
2018-11-20T14:26:18.268Z,33.10
2018-11-20T14:27:18.277Z,33.90
2018-11-20T14:28:18.297Z,33.00
2018-11-20T14:29:18.301Z,33.40
2018-11-20T14:30:18.312Z,35.80
2018-11-20T14:31:18.325Z,32.60
2018-11-20T14:32:18.340Z,34.10
2018-11-20T14:33:18.349Z,33.70
2018-11-20T14:34:18.363Z,31.80
2018-11-20T14:35:18.370Z,33.60
2018-11-20T14:36:18.393Z,32.90
2018-11-20T14:37:18.409Z,33.20
2018-11-20T14:38:18.413Z,35.40
2018-11-20T14:39:18.422Z,33.10
2018-11-20T14:40:18.429Z,32.70
2018-11-20T14:41:18.450Z,33.90
2018-11-20T14:42:18.452Z,33.60
2018-11-20T14:43:18.461Z,34.30
2018-11-20T14:44:18.476Z,34.60
2018-11-20T14:45:18.487Z,33.00
2018-11-20T14:46:18.501Z,31.50
2018-11-20T14:47:18.506Z,33.50
2018-11-20T14:48:18.542Z,30.70
2018-11-20T14:49:18.532Z,32.60
2018-11-20T14:50:18.559Z,34.20
2018-11-20T14:51:18.559Z,35.10
2018-11-20T14:52:18.573Z,36.20
2018-11-20T14:53:18.587Z,34.90
2018-11-20T14:54:18.592Z,34.80
2018-11-20T14:55:18.607Z,35.90
2018-11-20T14:56:18.617Z,35.90
2018-11-20T14:57:18.625Z,33.70
2018-11-20T14:58:18.639Z,34.60
2018-11-20T14:59:18.661Z,30.70
2018-11-20T15:00:18.666Z,33.80
2018-11-20T15:01:18.671Z,33.80
2018-11-20T15:02:18.688Z,33.90
2018-11-20T15:03:18.706Z,32.60
2018-11-20T15:04:18.713Z,34.30
2018-11-20T15:05:18.720Z,32.80
2018-11-20T15:06:18.731Z,33.50
2018-11-20T15:07:18.750Z,33.10
2018-11-20T15:08:18.751Z,33.60
2018-11-20T15:09:18.767Z,33.40
2018-11-20T15:10:18.784Z,33.20
2018-11-20T15:11:18.784Z,34.00
2018-11-20T15:12:18.806Z,34.90
2018-11-20T15:13:18.812Z,34.50
2018-11-20T15:14:18.839Z,33.90
2018-11-20T15:15:18.838Z,33.00
2018-11-20T15:16:18.843Z,36.40
2018-11-20T15:17:18.859Z,33.40
2018-11-20T15:18:18.873Z,33.80
2018-11-20T15:19:18.881Z,34.70
2018-11-20T15:20:18.894Z,32.80
2018-11-20T15:21:18.912Z,34.30
2018-11-20T15:22:18.917Z,35.70
2018-11-20T15:23:18.927Z,32.30
2018-11-20T15:24:18.939Z,33.70
2018-11-20T15:25:18.963Z,35.20
2018-11-20T15:26:18.973Z,36.10
2018-11-20T15:27:18.973Z,34.60
2018-11-20T15:28:18.983Z,34.70
2018-11-20T15:29:19.003Z,35.50
2018-11-20T15:30:19.012Z,35.50
2018-11-20T15:31:19.017Z,34.00
2018-11-20T15:32:19.041Z,32.80
2018-11-20T15:33:19.042Z,33.70
2018-11-20T15:34:19.055Z,36.40
2018-11-20T15:35:19.064Z,33.50
2018-11-20T15:36:19.077Z,35.90
2018-11-20T15:37:19.089Z,37.10
2018-11-20T15:38:19.106Z,34.80
2018-11-20T15:39:19.127Z,36.10
2018-11-20T15:40:19.130Z,34.90
2018-11-20T15:41:19.136Z,34.80
2018-11-20T15:42:19.149Z,36.50
2018-11-20T15:43:19.172Z,34.70
2018-11-20T15:44:19.171Z,35.90
2018-11-20T15:45:19.184Z,36.20
2018-11-20T15:46:19.192Z,35.80
2018-11-20T15:47:19.215Z,44.40
2018-11-20T15:48:19.216Z,36.40
2018-11-20T15:49:19.226Z,40.80
2018-11-20T15:50:19.243Z,46.50
2018-11-20T15:51:19.249Z,49.20
2018-11-20T15:52:19.263Z,49.20
2018-11-20T15:53:19.273Z,49.40
2018-11-20T15:54:19.295Z,47.40
2018-11-20T15:55:19.298Z,35.10
2018-11-20T15:56:19.353Z,34.60
2018-11-20T15:57:19.320Z,37.20
2018-11-20T15:58:19.334Z,36.00
2018-11-20T15:59:19.343Z,39.40
2018-11-20T16:00:19.356Z,39.50
2018-11-20T16:01:23.275Z,38.30
2018-11-20T16:02:19.385Z,41.70
2018-11-20T16:03:23.064Z,41.20
2018-11-20T16:04:19.414Z,38.10
2018-11-20T16:05:19.421Z,35.10
2018-11-20T16:06:19.429Z,37.20
2018-11-20T16:07:19.440Z,36.00
2018-11-20T16:08:19.453Z,33.70
2018-11-20T16:09:19.462Z,33.90
2018-11-20T16:10:19.484Z,35.90
2018-11-20T16:11:19.484Z,36.80
2018-11-20T16:12:19.507Z,35.80
2018-11-20T16:13:19.543Z,34.20
2018-11-20T16:14:19.542Z,35.50
2018-11-20T16:15:19.533Z,34.20
2018-11-20T16:16:19.541Z,34.70
2018-11-20T16:17:19.550Z,37.20
2018-11-20T16:18:19.562Z,37.20
2018-11-20T16:19:19.574Z,34.40
2018-11-20T16:20:19.587Z,35.40
2018-11-20T16:21:19.596Z,34.20
2018-11-20T16:22:19.613Z,32.20
2018-11-20T16:23:19.636Z,33.50
2018-11-20T16:24:19.641Z,35.00
2018-11-20T16:25:19.649Z,34.60
2018-11-20T16:26:19.656Z,32.80
2018-11-20T16:27:19.670Z,32.70
2018-11-20T16:28:19.679Z,33.70
2018-11-20T16:29:19.691Z,30.20
2018-11-20T16:30:19.714Z,31.90
2018-11-20T16:31:19.714Z,30.80